As Olivia — DYQC — position and weather

sailwx.info

Track history (hours):
 
Tides and Currents Weather Stations Pressure Air Temp Water Temp Dewpoint Dewpoint Depression Visibility Wind Speed Wind Dir Waves Ship Positions

As Olivia

Last reported at 2015-Mar-30 11:09 UTC. Time now 2015-Mar-30 20:07 UTC.
Position N 51°53' E 004°17'.

Length 146 m; draft 6.5 m.

Type: Ship (hazmat cat C). MMSI: 548767000.

Date/timePositionNaut miles runAvg speedWind from/ knotsBaromVisibWave heightAir tempDewpointWater temp
2015-Mar-30 11:09N 51°53' E 004°17'0 0.4
2015-Mar-30 10:33N 51°53' E 004°17'1 0.6
2015-Mar-30 09:31N 51°53' E 004°18'  
2015-Mar-27 19:33N 51°53' E 004°18'5 4.6
2015-Mar-27 18:33N 51°56' E 004°13'1212.0
2015-Mar-27 17:33N 52°01' E 003°55'8 8.3
2015-Mar-27 16:32N 51°58' E 003°41'1312.3
2015-Mar-27 15:30N 51°55' E 003°22'41 4.5
2015-Mar-27 06:32N 52°32' E 003°49'1212.6
2015-Mar-27 05:34N 52°31' E 004°09'1211.8
2015-Mar-27 04:34N 52°29' E 004°29'5 5.1
2015-Mar-27 03:33N 52°28' E 004°37'6 5.7
2015-Mar-27 02:34N 52°26' E 004°45'4 4.3
2015-Mar-27 01:32N 52°24' E 004°52'0 0.0
2015-Mar-25 21:31N 52°24' E 004°52'0 0.2
2015-Mar-25 20:34N 52°24' E 004°52'6 6.0
2015-Mar-25 19:34N 52°26' E 004°43'4 4.2
2015-Mar-25 18:34N 52°28' E 004°36'6 6.5
2015-Mar-25 17:34N 52°29' E 004°26'1010.4
2015-Mar-25 16:33N 52°29' E 004°09'1413.7
2015-Mar-25 15:33N 52°26' E 003°47'6610.4
2015-Mar-25 09:16N 51°41' E 002°30'913.2
2015-Mar-25 08:33N 51°34' E 002°19'1414.3
2015-Mar-25 07:33N 51°24' E 002°04'1413.8
2015-Mar-25 06:34N 51°13' E 001°49'1514.9
2015-Mar-25 05:33N 51°02' E 001°35'  
2015-Mar-22 07:29N 39°13' W 009°56'1413.2
2015-Mar-22 06:28N 38°59' W 009°56'1213.3
2015-Mar-22 05:33N 38°47' W 009°56'1313.3
2015-Mar-22 04:33N 38°34' W 009°54'1413.5
2015-Mar-22 03:33N 38°21' W 009°50'1413.7
2015-Mar-22 02:33N 38°07' W 009°46'1413.5
2015-Mar-22 01:33N 37°54' W 009°42'1413.8
2015-Mar-22 00:33N 37°41' W 009°38'1313.4
2015-Mar-21 23:33N 37°28' W 009°34'1413.1
2015-Mar-21 22:31N 37°14' W 009°31'4812.0
2015-Mar-21 18:33N 36°36' W 008°55'1513.8
2015-Mar-21 17:27N 36°31' W 008°37'15413.0
2015-Mar-21 05:33N 35°59' W 005°30'1111.0
2015-Mar-21 04:33N 36°02' W 005°17'21413.4
2015-Mar-20 12:33N 37°06' W 001°03'1413.8
2015-Mar-20 11:33N 37°14' W 000°49'  
Track history (hours):
 
Tides and Currents Weather Stations Pressure Air Temp Water Temp Dewpoint Dewpoint Depression Visibility Wind Speed Wind Dir Waves Ship Positions

As Olivia

Last reported at 2015-Mar-30 11:09 UTC. Time now 2015-Mar-30 20:07 UTC.
Position N 51°53' E 004°17'.

Length 146 m; draft 6.5 m.

Type: Ship (hazmat cat C). MMSI: 548767000.

Date/timePositionNaut miles runAvg speedWind from/ knotsBaromVisibWave heightAir tempDewpointWater temp
2015-Mar-30 11:09N 51°53' E 004°17'0 0.4
2015-Mar-30 10:33N 51°53' E 004°17'1 0.6
2015-Mar-30 09:31N 51°53' E 004°18'  
2015-Mar-27 19:33N 51°53' E 004°18'5 4.6
2015-Mar-27 18:33N 51°56' E 004°13'1212.0
2015-Mar-27 17:33N 52°01' E 003°55'8 8.3
2015-Mar-27 16:32N 51°58' E 003°41'1312.3
2015-Mar-27 15:30N 51°55' E 003°22'41 4.5
2015-Mar-27 06:32N 52°32' E 003°49'1212.6
2015-Mar-27 05:34N 52°31' E 004°09'1211.8
2015-Mar-27 04:34N 52°29' E 004°29'5 5.1
2015-Mar-27 03:33N 52°28' E 004°37'6 5.7
2015-Mar-27 02:34N 52°26' E 004°45'4 4.3
2015-Mar-27 01:32N 52°24' E 004°52'0 0.0
2015-Mar-25 21:31N 52°24' E 004°52'0 0.2
2015-Mar-25 20:34N 52°24' E 004°52'6 6.0
2015-Mar-25 19:34N 52°26' E 004°43'4 4.2
2015-Mar-25 18:34N 52°28' E 004°36'6 6.5
2015-Mar-25 17:34N 52°29' E 004°26'1010.4
2015-Mar-25 16:33N 52°29' E 004°09'1413.7
2015-Mar-25 15:33N 52°26' E 003°47'6610.4
2015-Mar-25 09:16N 51°41' E 002°30'913.2
2015-Mar-25 08:33N 51°34' E 002°19'1414.3
2015-Mar-25 07:33N 51°24' E 002°04'1413.8
2015-Mar-25 06:34N 51°13' E 001°49'1514.9
2015-Mar-25 05:33N 51°02' E 001°35'  
2015-Mar-22 07:29N 39°13' W 009°56'1413.2
2015-Mar-22 06:28N 38°59' W 009°56'1213.3
2015-Mar-22 05:33N 38°47' W 009°56'1313.3
2015-Mar-22 04:33N 38°34' W 009°54'1413.5
2015-Mar-22 03:33N 38°21' W 009°50'1413.7
2015-Mar-22 02:33N 38°07' W 009°46'1413.5
2015-Mar-22 01:33N 37°54' W 009°42'1413.8
2015-Mar-22 00:33N 37°41' W 009°38'1313.4
2015-Mar-21 23:33N 37°28' W 009°34'1413.1
2015-Mar-21 22:31N 37°14' W 009°31'4812.0
2015-Mar-21 18:33N 36°36' W 008°55'1513.8
2015-Mar-21 17:27N 36°31' W 008°37'15413.0
2015-Mar-21 05:33N 35°59' W 005°30'1111.0
2015-Mar-21 04:33N 36°02' W 005°17'21413.4
2015-Mar-20 12:33N 37°06' W 001°03'1413.8
2015-Mar-20 11:33N 37°14' W 000°49'  

Dump ship's entire track history